sensor_id;sensor_type;location;lat;lon;timestamp;P1;durP1;ratioP1;P2;durP2;ratioP2
14770;SDS011;7477;45.222;5.688;2024-03-23T00:54:20;3.13;;;2.13;;
14770;SDS011;7477;45.222;5.688;2024-03-23T00:57:39;3.97;;;2.00;;
14770;SDS011;7477;45.222;5.688;2024-03-23T01:00:58;4.55;;;2.50;;
14770;SDS011;7477;45.222;5.688;2024-03-23T01:04:17;2.55;;;1.83;;
14770;SDS011;7477;45.222;5.688;2024-03-23T01:07:37;3.13;;;1.98;;
14770;SDS011;7477;45.222;5.688;2024-03-23T01:10:56;3.65;;;1.90;;
14770;SDS011;7477;45.222;5.688;2024-03-23T01:14:19;2.78;;;2.00;;
14770;SDS011;7477;45.222;5.688;2024-03-23T01:17:39;3.33;;;1.95;;
14770;SDS011;7477;45.222;5.688;2024-03-23T01:20:58;2.55;;;2.08;;
14770;SDS011;7477;45.222;5.688;2024-03-23T01:24:17;3.42;;;2.15;;
14770;SDS011;7477;45.222;5.688;2024-03-23T01:27:37;1.63;;;1.52;;
14770;SDS011;7477;45.222;5.688;2024-03-23T01:30:56;2.53;;;1.55;;
14770;SDS011;7477;45.222;5.688;2024-03-23T01:34:15;1.45;;;1.35;;
14770;SDS011;7477;45.222;5.688;2024-03-23T01:37:34;2.22;;;1.70;;
14770;SDS011;7477;45.222;5.688;2024-03-23T01:40:57;3.03;;;1.70;;
14770;SDS011;7477;45.222;5.688;2024-03-23T01:44:17;3.50;;;1.25;;
14770;SDS011;7477;45.222;5.688;2024-03-23T01:47:36;2.17;;;1.50;;
14770;SDS011;7477;45.222;5.688;2024-03-23T01:50:55;2.78;;;1.55;;
14770;SDS011;7477;45.222;5.688;2024-03-23T01:54:15;1.60;;;1.50;;
14770;SDS011;7477;45.222;5.688;2024-03-23T01:57:34;1.50;;;1.40;;
14770;SDS011;7477;45.222;5.688;2024-03-23T02:00:53;2.83;;;1.35;;
14770;SDS011;7477;45.222;5.688;2024-03-23T02:04:13;2.13;;;1.33;;
14770;SDS011;7477;45.222;5.688;2024-03-23T02:07:32;1.67;;;1.58;;
14770;SDS011;7477;45.222;5.688;2024-03-23T02:10:51;3.00;;;1.83;;
14770;SDS011;7477;45.222;5.688;2024-03-23T02:14:10;1.33;;;1.00;;
14770;SDS011;7477;45.222;5.688;2024-03-23T02:17:30;1.40;;;1.30;;
14770;SDS011;7477;45.222;5.688;2024-03-23T02:20:52;2.30;;;1.50;;
14770;SDS011;7477;45.222;5.688;2024-03-23T02:24:11;4.15;;;1.95;;
14770;SDS011;7477;45.222;5.688;2024-03-23T02:27:31;3.22;;;1.30;;
14770;SDS011;7477;45.222;5.688;2024-03-23T02:30:52;5.28;;;1.58;;
14770;SDS011;7477;45.222;5.688;2024-03-23T02:34:11;2.45;;;1.67;;
14770;SDS011;7477;45.222;5.688;2024-03-23T02:37:30;5.15;;;1.90;;
14770;SDS011;7477;45.222;5.688;2024-03-23T02:40:50;3.20;;;2.00;;
14770;SDS011;7477;45.222;5.688;2024-03-23T02:44:09;4.03;;;2.05;;
14770;SDS011;7477;45.222;5.688;2024-03-23T02:47:30;2.55;;;1.80;;
14770;SDS011;7477;45.222;5.688;2024-03-23T02:50:49;1.95;;;1.75;;
14770;SDS011;7477;45.222;5.688;2024-03-23T02:54:09;2.35;;;1.63;;
14770;SDS011;7477;45.222;5.688;2024-03-23T02:57:28;1.52;;;1.42;;
14770;SDS011;7477;45.222;5.688;2024-03-23T03:00:48;4.43;;;2.15;;
14770;SDS011;7477;45.222;5.688;2024-03-23T03:04:07;2.20;;;1.75;;
14770;SDS011;7477;45.222;5.688;2024-03-23T03:07:26;8.98;;;1.70;;
14770;SDS011;7477;45.222;5.688;2024-03-23T03:10:46;9.50;;;2.10;;
14770;SDS011;7477;45.222;5.688;2024-03-23T03:14:05;3.08;;;1.90;;
14770;SDS011;7477;45.222;5.688;2024-03-23T03:17:26;2.60;;;2.40;;
14770;SDS011;7477;45.222;5.688;2024-03-23T03:20:45;3.40;;;2.00;;
14770;SDS011;7477;45.222;5.688;2024-03-23T03:24:06;2.13;;;1.80;;
14770;SDS011;7477;45.222;5.688;2024-03-23T03:27:25;2.90;;;1.80;;
14770;SDS011;7477;45.222;5.688;2024-03-23T03:30:44;3.30;;;2.20;;
14770;SDS011;7477;45.222;5.688;2024-03-23T03:34:04;4.18;;;1.88;;
14770;SDS011;7477;45.222;5.688;2024-03-23T03:37:24;2.75;;;1.80;;
14770;SDS011;7477;45.222;5.688;2024-03-23T03:40:43;1.88;;;1.77;;
14770;SDS011;7477;45.222;5.688;2024-03-23T03:44:02;3.85;;;2.20;;
14770;SDS011;7477;45.222;5.688;2024-03-23T03:47:22;3.13;;;1.83;;
14770;SDS011;7477;45.222;5.688;2024-03-23T03:50:41;2.83;;;2.13;;
14770;SDS011;7477;45.222;5.688;2024-03-23T03:54:00;3.42;;;2.15;;
14770;SDS011;7477;45.222;5.688;2024-03-23T03:57:19;3.45;;;2.30;;
14770;SDS011;7477;45.222;5.688;2024-03-23T04:00:38;3.00;;;2.40;;
14770;SDS011;7477;45.222;5.688;2024-03-23T04:03:58;2.30;;;2.10;;
14770;SDS011;7477;45.222;5.688;2024-03-23T04:07:17;4.38;;;2.28;;
14770;SDS011;7477;45.222;5.688;2024-03-23T04:10:37;2.85;;;2.03;;
14770;SDS011;7477;45.222;5.688;2024-03-23T04:13:56;2.65;;;2.00;;
14770;SDS011;7477;45.222;5.688;2024-03-23T04:17:15;3.67;;;2.38;;
14770;SDS011;7477;45.222;5.688;2024-03-23T04:20:35;2.30;;;2.10;;
14770;SDS011;7477;45.222;5.688;2024-03-23T04:23:54;2.58;;;2.08;;
14770;SDS011;7477;45.222;5.688;2024-03-23T04:27:13;1.83;;;1.70;;
14770;SDS011;7477;45.222;5.688;2024-03-23T04:30:32;2.65;;;1.88;;
14770;SDS011;7477;45.222;5.688;2024-03-23T04:33:51;2.65;;;1.90;;
14770;SDS011;7477;45.222;5.688;2024-03-23T04:37:11;5.82;;;2.13;;
14770;SDS011;7477;45.222;5.688;2024-03-23T04:40:30;4.07;;;2.22;;
14770;SDS011;7477;45.222;5.688;2024-03-23T04:43:49;2.42;;;1.92;;
14770;SDS011;7477;45.222;5.688;2024-03-23T04:47:08;3.10;;;2.30;;
14770;SDS011;7477;45.222;5.688;2024-03-23T04:50:27;2.47;;;1.90;;
14770;SDS011;7477;45.222;5.688;2024-03-23T04:53:47;3.95;;;2.50;;
14770;SDS011;7477;45.222;5.688;2024-03-23T04:57:06;5.13;;;2.60;;
14770;SDS011;7477;45.222;5.688;2024-03-23T05:00:26;3.63;;;2.72;;
14770;SDS011;7477;45.222;5.688;2024-03-23T05:03:45;2.40;;;2.20;;
14770;SDS011;7477;45.222;5.688;2024-03-23T05:07:04;2.85;;;2.45;;
14770;SDS011;7477;45.222;5.688;2024-03-23T05:10:23;3.28;;;2.40;;
14770;SDS011;7477;45.222;5.688;2024-03-23T05:13:42;3.85;;;2.83;;
14770;SDS011;7477;45.222;5.688;2024-03-23T05:17:03;2.97;;;2.70;;
14770;SDS011;7477;45.222;5.688;2024-03-23T05:20:23;5.88;;;2.50;;
14770;SDS011;7477;45.222;5.688;2024-03-23T05:23:43;5.53;;;3.05;;
14770;SDS011;7477;45.222;5.688;2024-03-23T05:27:02;4.45;;;2.78;;
14770;SDS011;7477;45.222;5.688;2024-03-23T05:30:22;3.90;;;2.80;;
14770;SDS011;7477;45.222;5.688;2024-03-23T05:33:42;3.97;;;2.88;;
14770;SDS011;7477;45.222;5.688;2024-03-23T05:37:01;6.10;;;3.28;;
14770;SDS011;7477;45.222;5.688;2024-03-23T05:40:20;6.85;;;3.30;;
14770;SDS011;7477;45.222;5.688;2024-03-23T05:43:42;3.30;;;2.70;;
14770;SDS011;7477;45.222;5.688;2024-03-23T05:47:01;5.10;;;3.55;;
14770;SDS011;7477;45.222;5.688;2024-03-23T05:50:20;4.95;;;3.97;;
14770;SDS011;7477;45.222;5.688;2024-03-23T05:53:39;5.10;;;4.18;;
14770;SDS011;7477;45.222;5.688;2024-03-23T05:56:58;6.97;;;4.55;;
14770;SDS011;7477;45.222;5.688;2024-03-23T06:00:18;8.18;;;4.38;;
14770;SDS011;7477;45.222;5.688;2024-03-23T06:03:37;7.82;;;4.95;;
14770;SDS011;7477;45.222;5.688;2024-03-23T06:06:57;6.45;;;5.05;;
14770;SDS011;7477;45.222;5.688;2024-03-23T06:10:16;4.68;;;3.92;;
14770;SDS011;7477;45.222;5.688;2024-03-23T06:13:35;5.32;;;3.53;;
14770;SDS011;7477;45.222;5.688;2024-03-23T06:16:55;6.45;;;3.72;;
14770;SDS011;7477;45.222;5.688;2024-03-23T06:20:14;6.53;;;3.40;;
14770;SDS011;7477;45.222;5.688;2024-03-23T06:23:34;4.00;;;3.10;;
14770;SDS011;7477;45.222;5.688;2024-03-23T06:26:53;6.50;;;4.28;;
14770;SDS011;7477;45.222;5.688;2024-03-23T06:30:12;5.97;;;4.30;;
14770;SDS011;7477;45.222;5.688;2024-03-23T06:33:32;9.50;;;7.00;;
14770;SDS011;7477;45.222;5.688;2024-03-23T06:36:51;5.55;;;4.60;;
14770;SDS011;7477;45.222;5.688;2024-03-23T06:40:10;7.40;;;4.80;;
14770;SDS011;7477;45.222;5.688;2024-03-23T06:43:30;10.57;;;5.55;;
14770;SDS011;7477;45.222;5.688;2024-03-23T06:46:49;8.05;;;4.55;;
14770;SDS011;7477;45.222;5.688;2024-03-23T06:50:08;7.10;;;4.65;;
14770;SDS011;7477;45.222;5.688;2024-03-23T06:53:29;10.80;;;5.55;;
14770;SDS011;7477;45.222;5.688;2024-03-23T06:56:48;10.52;;;5.30;;
14770;SDS011;7477;45.222;5.688;2024-03-23T07:00:07;8.07;;;5.78;;
14770;SDS011;7477;45.222;5.688;2024-03-23T07:03:28;7.30;;;5.30;;
14770;SDS011;7477;45.222;5.688;2024-03-23T07:06:47;8.82;;;5.15;;
14770;SDS011;7477;45.222;5.688;2024-03-23T07:10:07;8.93;;;4.90;;
14770;SDS011;7477;45.222;5.688;2024-03-23T07:13:26;8.38;;;5.40;;
14770;SDS011;7477;45.222;5.688;2024-03-23T07:16:45;8.10;;;6.00;;
14770;SDS011;7477;45.222;5.688;2024-03-23T07:20:05;5.93;;;4.60;;
14770;SDS011;7477;45.222;5.688;2024-03-23T07:23:28;7.55;;;4.95;;
14770;SDS011;7477;45.222;5.688;2024-03-23T07:26:48;8.00;;;5.43;;
14770;SDS011;7477;45.222;5.688;2024-03-23T07:30:07;7.68;;;4.85;;
14770;SDS011;7477;45.222;5.688;2024-03-23T07:33:27;8.93;;;4.68;;
14770;SDS011;7477;45.222;5.688;2024-03-23T07:36:47;8.52;;;4.88;;
14770;SDS011;7477;45.222;5.688;2024-03-23T07:40:07;9.02;;;4.47;;
14770;SDS011;7477;45.222;5.688;2024-03-23T07:43:26;5.95;;;4.28;;
14770;SDS011;7477;45.222;5.688;2024-03-23T07:46:46;5.50;;;3.50;;
14770;SDS011;7477;45.222;5.688;2024-03-23T07:50:06;5.28;;;4.10;;
14770;SDS011;7477;45.222;5.688;2024-03-23T07:53:25;4.45;;;3.40;;
14770;SDS011;7477;45.222;5.688;2024-03-23T07:56:45;6.47;;;3.58;;
14770;SDS011;7477;45.222;5.688;2024-03-23T08:00:05;8.25;;;3.58;;
14770;SDS011;7477;45.222;5.688;2024-03-23T08:03:26;5.20;;;3.47;;
14770;SDS011;7477;45.222;5.688;2024-03-23T08:06:45;4.22;;;3.65;;
14770;SDS011;7477;45.222;5.688;2024-03-23T08:10:04;4.85;;;3.45;;
14770;SDS011;7477;45.222;5.688;2024-03-23T08:13:24;3.53;;;3.22;;
14770;SDS011;7477;45.222;5.688;2024-03-23T08:16:44;6.00;;;4.25;;
14770;SDS011;7477;45.222;5.688;2024-03-23T08:20:07;4.07;;;3.22;;
14770;SDS011;7477;45.222;5.688;2024-03-23T08:23:27;6.88;;;4.82;;
14770;SDS011;7477;45.222;5.688;2024-03-23T08:26:47;6.47;;;4.30;;
14770;SDS011;7477;45.222;5.688;2024-03-23T08:30:06;6.65;;;5.07;;
14770;SDS011;7477;45.222;5.688;2024-03-23T08:33:26;9.85;;;4.53;;
14770;SDS011;7477;45.222;5.688;2024-03-23T08:36:45;6.25;;;4.25;;
14770;SDS011;7477;45.222;5.688;2024-03-23T08:40:04;3.95;;;3.05;;
14770;SDS011;7477;45.222;5.688;2024-03-23T08:43:25;2.20;;;1.48;;
14770;SDS011;7477;45.222;5.688;2024-03-23T08:46:45;3.90;;;2.00;;
14770;SDS011;7477;45.222;5.688;2024-03-23T08:50:04;2.83;;;1.48;;
14770;SDS011;7477;45.222;5.688;2024-03-23T08:53:24;2.45;;;1.02;;
14770;SDS011;7477;45.222;5.688;2024-03-23T08:56:43;1.25;;;1.15;;
14770;SDS011;7477;45.222;5.688;2024-03-23T09:00:02;5.15;;;1.50;;
14770;SDS011;7477;45.222;5.688;2024-03-23T09:03:22;0.90;;;0.90;;
14770;SDS011;7477;45.222;5.688;2024-03-23T09:06:42;3.22;;;1.70;;
14770;SDS011;7477;45.222;5.688;2024-03-23T09:10:02;1.13;;;1.00;;
14770;SDS011;7477;45.222;5.688;2024-03-23T09:13:22;2.22;;;1.42;;
14770;SDS011;7477;45.222;5.688;2024-03-23T09:16:41;2.58;;;1.73;;
14770;SDS011;7477;45.222;5.688;2024-03-23T09:20:04;1.08;;;0.90;;
14770;SDS011;7477;45.222;5.688;2024-03-23T09:23:24;5.82;;;1.20;;
14770;SDS011;7477;45.222;5.688;2024-03-23T09:26:43;2.38;;;1.30;;
14770;SDS011;7477;45.222;5.688;2024-03-23T09:30:03;3.10;;;1.30;;
14770;SDS011;7477;45.222;5.688;2024-03-23T09:33:23;4.10;;;1.50;;
14770;SDS011;7477;45.222;5.688;2024-03-23T09:36:43;7.18;;;2.33;;
14770;SDS011;7477;45.222;5.688;2024-03-23T09:40:02;2.08;;;1.10;;
14770;SDS011;7477;45.222;5.688;2024-03-23T09:43:24;5.15;;;1.77;;
14770;SDS011;7477;45.222;5.688;2024-03-23T09:46:43;8.18;;;2.10;;
14770;SDS011;7477;45.222;5.688;2024-03-23T09:50:02;4.72;;;1.40;;
14770;SDS011;7477;45.222;5.688;2024-03-23T09:53:23;4.10;;;1.30;;
14770;SDS011;7477;45.222;5.688;2024-03-23T09:56:42;2.45;;;1.10;;
14770;SDS011;7477;45.222;5.688;2024-03-23T10:00:02;7.07;;;2.13;;
14770;SDS011;7477;45.222;5.688;2024-03-23T10:03:22;9.88;;;1.98;;
14770;SDS011;7477;45.222;5.688;2024-03-23T10:06:41;3.58;;;1.52;;
14770;SDS011;7477;45.222;5.688;2024-03-23T10:10:00;5.43;;;1.77;;
14770;SDS011;7477;45.222;5.688;2024-03-23T10:13:29;4.40;;;1.95;;
14770;SDS011;7477;45.222;5.688;2024-03-23T10:16:48;5.03;;;2.15;;
14770;SDS011;7477;45.222;5.688;2024-03-23T10:20:09;5.70;;;1.63;;
14770;SDS011;7477;45.222;5.688;2024-03-23T10:23:30;6.95;;;1.83;;
14770;SDS011;7477;45.222;5.688;2024-03-23T10:26:55;4.20;;;1.50;;
14770;SDS011;7477;45.222;5.688;2024-03-23T10:30:15;2.70;;;1.58;;
14770;SDS011;7477;45.222;5.688;2024-03-23T10:33:34;5.43;;;1.70;;
14770;SDS011;7477;45.222;5.688;2024-03-23T10:36:54;5.65;;;1.60;;
14770;SDS011;7477;45.222;5.688;2024-03-23T10:40:15;7.30;;;1.58;;
14770;SDS011;7477;45.222;5.688;2024-03-23T10:43:35;3.83;;;1.58;;
14770;SDS011;7477;45.222;5.688;2024-03-23T10:46:59;6.07;;;2.08;;
14770;SDS011;7477;45.222;5.688;2024-03-23T10:50:22;4.75;;;1.60;;
14770;SDS011;7477;45.222;5.688;2024-03-23T10:53:42;8.57;;;3.05;;
14770;SDS011;7477;45.222;5.688;2024-03-23T10:57:03;4.97;;;2.05;;
14770;SDS011;7477;45.222;5.688;2024-03-23T11:00:36;4.03;;;1.40;;
14770;SDS011;7477;45.222;5.688;2024-03-23T11:03:55;5.63;;;1.77;;
14770;SDS011;7477;45.222;5.688;2024-03-23T11:10:42;3.67;;;2.10;;
14770;SDS011;7477;45.222;5.688;2024-03-23T11:14:03;5.68;;;1.65;;
14770;SDS011;7477;45.222;5.688;2024-03-23T11:17:40;5.25;;;2.13;;
14770;SDS011;7477;45.222;5.688;2024-03-23T11:20:59;7.20;;;2.00;;
14770;SDS011;7477;45.222;5.688;2024-03-23T11:24:19;7.82;;;2.00;;
14770;SDS011;7477;45.222;5.688;2024-03-23T11:27:39;2.85;;;1.38;;
14770;SDS011;7477;45.222;5.688;2024-03-23T11:30:59;4.38;;;1.45;;
14770;SDS011;7477;45.222;5.688;2024-03-23T11:34:18;5.80;;;1.70;;
14770;SDS011;7477;45.222;5.688;2024-03-23T11:37:38;5.97;;;1.70;;
14770;SDS011;7477;45.222;5.688;2024-03-23T11:40:58;5.45;;;1.70;;
14770;SDS011;7477;45.222;5.688;2024-03-23T11:44:22;5.20;;;1.40;;
14770;SDS011;7477;45.222;5.688;2024-03-23T11:47:43;4.10;;;1.95;;
14770;SDS011;7477;45.222;5.688;2024-03-23T11:51:02;3.20;;;1.48;;
14770;SDS011;7477;45.222;5.688;2024-03-23T11:54:26;4.22;;;1.92;;
14770;SDS011;7477;45.222;5.688;2024-03-23T11:57:45;5.53;;;1.65;;
14770;SDS011;7477;45.222;5.688;2024-03-23T12:01:04;2.78;;;1.48;;
14770;SDS011;7477;45.222;5.688;2024-03-23T12:04:28;3.15;;;1.48;;
14770;SDS011;7477;45.222;5.688;2024-03-23T12:07:48;3.38;;;1.80;;
14770;SDS011;7477;45.222;5.688;2024-03-23T12:11:08;4.43;;;1.80;;
14770;SDS011;7477;45.222;5.688;2024-03-23T12:14:32;2.78;;;1.33;;
14770;SDS011;7477;45.222;5.688;2024-03-23T12:17:51;4.70;;;1.42;;
14770;SDS011;7477;45.222;5.688;2024-03-23T12:21:11;5.20;;;1.45;;
14770;SDS011;7477;45.222;5.688;2024-03-23T12:24:30;4.55;;;1.63;;
14770;SDS011;7477;45.222;5.688;2024-03-23T12:27:50;5.20;;;2.13;;
14770;SDS011;7477;45.222;5.688;2024-03-23T12:31:10;5.32;;;1.80;;
14770;SDS011;7477;45.222;5.688;2024-03-23T12:34:29;4.25;;;1.40;;
14770;SDS011;7477;45.222;5.688;2024-03-23T12:37:51;7.18;;;2.05;;
14770;SDS011;7477;45.222;5.688;2024-03-23T12:41:10;5.65;;;1.58;;
14770;SDS011;7477;45.222;5.688;2024-03-23T12:44:30;1.90;;;1.00;;
14770;SDS011;7477;45.222;5.688;2024-03-23T12:47:50;4.28;;;1.25;;
14770;SDS011;7477;45.222;5.688;2024-03-23T12:51:12;3.80;;;1.65;;
14770;SDS011;7477;45.222;5.688;2024-03-23T12:54:31;4.65;;;1.35;;
14770;SDS011;7477;45.222;5.688;2024-03-23T12:57:50;2.78;;;1.42;;
14770;SDS011;7477;45.222;5.688;2024-03-23T13:01:09;3.33;;;1.50;;
14770;SDS011;7477;45.222;5.688;2024-03-23T13:04:29;4.22;;;1.38;;
14770;SDS011;7477;45.222;5.688;2024-03-23T13:07:49;4.28;;;1.70;;
14770;SDS011;7477;45.222;5.688;2024-03-23T13:11:08;9.07;;;1.60;;
14770;SDS011;7477;45.222;5.688;2024-03-23T13:14:29;3.38;;;1.67;;
14770;SDS011;7477;45.222;5.688;2024-03-23T13:17:48;5.32;;;1.70;;
14770;SDS011;7477;45.222;5.688;2024-03-23T13:21:09;6.78;;;1.85;;
14770;SDS011;7477;45.222;5.688;2024-03-23T13:24:28;3.33;;;1.35;;
14770;SDS011;7477;45.222;5.688;2024-03-23T13:27:47;7.25;;;1.58;;
14770;SDS011;7477;45.222;5.688;2024-03-23T13:31:07;6.43;;;1.52;;
14770;SDS011;7477;45.222;5.688;2024-03-23T13:34:27;4.20;;;1.80;;
14770;SDS011;7477;45.222;5.688;2024-03-23T13:37:48;3.30;;;1.42;;
14770;SDS011;7477;45.222;5.688;2024-03-23T13:41:07;2.53;;;1.10;;
14770;SDS011;7477;45.222;5.688;2024-03-23T13:44:27;3.58;;;1.58;;
14770;SDS011;7477;45.222;5.688;2024-03-23T13:47:46;3.47;;;1.27;;
14770;SDS011;7477;45.222;5.688;2024-03-23T13:51:05;5.60;;;1.50;;
14770;SDS011;7477;45.222;5.688;2024-03-23T13:54:25;4.78;;;1.33;;
14770;SDS011;7477;45.222;5.688;2024-03-23T13:57:45;4.05;;;1.73;;
14770;SDS011;7477;45.222;5.688;2024-03-23T14:01:04;1.55;;;1.17;;
14770;SDS011;7477;45.222;5.688;2024-03-23T14:04:23;2.38;;;1.30;;
14770;SDS011;7477;45.222;5.688;2024-03-23T14:07:45;3.20;;;1.02;;
14770;SDS011;7477;45.222;5.688;2024-03-23T14:11:07;3.65;;;1.25;;
14770;SDS011;7477;45.222;5.688;2024-03-23T14:14:28;3.00;;;1.10;;
14770;SDS011;7477;45.222;5.688;2024-03-23T14:17:48;3.90;;;1.38;;
14770;SDS011;7477;45.222;5.688;2024-03-23T14:21:08;3.15;;;1.10;;
14770;SDS011;7477;45.222;5.688;2024-03-23T14:24:27;3.67;;;1.10;;
14770;SDS011;7477;45.222;5.688;2024-03-23T14:27:46;2.58;;;1.25;;
14770;SDS011;7477;45.222;5.688;2024-03-23T14:31:06;3.15;;;1.10;;
14770;SDS011;7477;45.222;5.688;2024-03-23T14:34:29;4.03;;;1.50;;
14770;SDS011;7477;45.222;5.688;2024-03-23T14:37:48;4.05;;;1.27;;
14770;SDS011;7477;45.222;5.688;2024-03-23T14:41:07;2.17;;;1.08;;
14770;SDS011;7477;45.222;5.688;2024-03-23T14:44:27;4.60;;;1.13;;
14770;SDS011;7477;45.222;5.688;2024-03-23T14:47:47;4.00;;;1.50;;
14770;SDS011;7477;45.222;5.688;2024-03-23T14:51:07;4.03;;;1.95;;
14770;SDS011;7477;45.222;5.688;2024-03-23T14:54:30;7.13;;;1.25;;
14770;SDS011;7477;45.222;5.688;2024-03-23T14:57:49;3.38;;;2.00;;
14770;SDS011;7477;45.222;5.688;2024-03-23T15:01:09;3.55;;;1.48;;
14770;SDS011;7477;45.222;5.688;2024-03-23T15:04:28;3.03;;;1.38;;
14770;SDS011;7477;45.222;5.688;2024-03-23T15:07:47;3.03;;;1.08;;
14770;SDS011;7477;45.222;5.688;2024-03-23T15:11:07;4.78;;;1.67;;
14770;SDS011;7477;45.222;5.688;2024-03-23T15:14:26;4.13;;;2.35;;
14770;SDS011;7477;45.222;5.688;2024-03-23T15:17:45;3.75;;;1.75;;
14770;SDS011;7477;45.222;5.688;2024-03-23T15:21:04;4.00;;;2.60;;
14770;SDS011;7477;45.222;5.688;2024-03-23T15:24:29;1.88;;;1.30;;
14770;SDS011;7477;45.222;5.688;2024-03-23T15:27:49;2.55;;;1.13;;
14770;SDS011;7477;45.222;5.688;2024-03-23T15:31:08;3.20;;;1.65;;
14770;SDS011;7477;45.222;5.688;2024-03-23T15:34:28;3.75;;;1.17;;
14770;SDS011;7477;45.222;5.688;2024-03-23T15:37:48;8.20;;;1.88;;
14770;SDS011;7477;45.222;5.688;2024-03-23T15:41:07;3.60;;;1.00;;
14770;SDS011;7477;45.222;5.688;2024-03-23T15:44:27;5.55;;;1.60;;
14770;SDS011;7477;45.222;5.688;2024-03-23T15:47:48;3.15;;;1.70;;
14770;SDS011;7477;45.222;5.688;2024-03-23T15:51:08;2.40;;;1.17;;
14770;SDS011;7477;45.222;5.688;2024-03-23T15:54:27;1.73;;;0.95;;
14770;SDS011;7477;45.222;5.688;2024-03-23T15:57:46;1.25;;;1.08;;
14770;SDS011;7477;45.222;5.688;2024-03-23T16:01:05;1.95;;;0.98;;
14770;SDS011;7477;45.222;5.688;2024-03-23T16:04:29;4.82;;;1.17;;
14770;SDS011;7477;45.222;5.688;2024-03-23T16:07:48;1.92;;;1.02;;
14770;SDS011;7477;45.222;5.688;2024-03-23T16:11:07;2.50;;;0.82;;
14770;SDS011;7477;45.222;5.688;2024-03-23T16:14:29;1.27;;;0.98;;
14770;SDS011;7477;45.222;5.688;2024-03-23T16:17:48;5.80;;;4.25;;
14770;SDS011;7477;45.222;5.688;2024-03-23T16:21:08;2.78;;;1.58;;
14770;SDS011;7477;45.222;5.688;2024-03-23T16:24:27;3.85;;;1.42;;
14770;SDS011;7477;45.222;5.688;2024-03-23T16:27:46;5.03;;;2.08;;
14770;SDS011;7477;45.222;5.688;2024-03-23T16:31:07;2.78;;;1.60;;
14770;SDS011;7477;45.222;5.688;2024-03-23T16:34:27;2.33;;;1.23;;
14770;SDS011;7477;45.222;5.688;2024-03-23T16:37:46;4.80;;;1.58;;
14770;SDS011;7477;45.222;5.688;2024-03-23T16:41:10;3.88;;;1.40;;
14770;SDS011;7477;45.222;5.688;2024-03-23T16:44:36;1.40;;;1.13;;
14770;SDS011;7477;45.222;5.688;2024-03-23T16:47:55;2.60;;;1.33;;
14770;SDS011;7477;45.222;5.688;2024-03-23T16:51:15;4.45;;;1.80;;
14770;SDS011;7477;45.222;5.688;2024-03-23T16:54:34;2.33;;;1.63;;
14770;SDS011;7477;45.222;5.688;2024-03-23T16:57:54;2.33;;;1.15;;
14770;SDS011;7477;45.222;5.688;2024-03-23T17:01:13;3.15;;;1.55;;
14770;SDS011;7477;45.222;5.688;2024-03-23T17:04:38;2.38;;;1.30;;
14770;SDS011;7477;45.222;5.688;2024-03-23T17:07:57;2.33;;;1.27;;
14770;SDS011;7477;45.222;5.688;2024-03-23T17:11:17;2.03;;;1.40;;
14770;SDS011;7477;45.222;5.688;2024-03-23T17:14:37;1.38;;;1.15;;
14770;SDS011;7477;45.222;5.688;2024-03-23T17:17:56;2.70;;;1.00;;
14770;SDS011;7477;45.222;5.688;2024-03-23T17:21:16;2.80;;;1.10;;
14770;SDS011;7477;45.222;5.688;2024-03-23T17:24:35;3.58;;;1.17;;
14770;SDS011;7477;45.222;5.688;2024-03-23T17:27:55;4.72;;;1.20;;
14770;SDS011;7477;45.222;5.688;2024-03-23T17:31:14;2.35;;;0.80;;
14770;SDS011;7477;45.222;5.688;2024-03-23T17:34:34;2.95;;;1.00;;
14770;SDS011;7477;45.222;5.688;2024-03-23T17:37:54;2.97;;;1.08;;
14770;SDS011;7477;45.222;5.688;2024-03-23T17:41:13;2.05;;;1.00;;
14770;SDS011;7477;45.222;5.688;2024-03-23T17:44:32;1.85;;;0.98;;
14770;SDS011;7477;45.222;5.688;2024-03-23T17:47:51;4.53;;;1.50;;
14770;SDS011;7477;45.222;5.688;2024-03-23T17:51:11;2.50;;;1.05;;
14770;SDS011;7477;45.222;5.688;2024-03-23T17:54:31;2.50;;;1.23;;
14770;SDS011;7477;45.222;5.688;2024-03-23T17:57:50;4.00;;;1.08;;
14770;SDS011;7477;45.222;5.688;2024-03-23T18:01:09;2.60;;;1.48;;
14770;SDS011;7477;45.222;5.688;2024-03-23T18:04:30;5.45;;;2.30;;
14770;SDS011;7477;45.222;5.688;2024-03-23T18:07:49;2.42;;;1.60;;
14770;SDS011;7477;45.222;5.688;2024-03-23T18:11:09;5.47;;;3.00;;
14770;SDS011;7477;45.222;5.688;2024-03-23T18:14:29;7.38;;;1.83;;
14770;SDS011;7477;45.222;5.688;2024-03-23T18:17:49;3.50;;;1.55;;
14770;SDS011;7477;45.222;5.688;2024-03-23T18:21:10;4.22;;;2.20;;
14770;SDS011;7477;45.222;5.688;2024-03-23T18:24:29;9.35;;;2.03;;
14770;SDS011;7477;45.222;5.688;2024-03-23T18:27:48;4.78;;;2.28;;
14770;SDS011;7477;45.222;5.688;2024-03-23T18:31:11;2.03;;;1.10;;
14770;SDS011;7477;45.222;5.688;2024-03-23T18:34:30;5.68;;;2.05;;
14770;SDS011;7477;45.222;5.688;2024-03-23T18:37:49;2.45;;;1.50;;
14770;SDS011;7477;45.222;5.688;2024-03-23T18:41:12;10.32;;;2.47;;
14770;SDS011;7477;45.222;5.688;2024-03-23T18:44:31;6.78;;;2.40;;
14770;SDS011;7477;45.222;5.688;2024-03-23T18:47:50;3.55;;;1.67;;
14770;SDS011;7477;45.222;5.688;2024-03-23T18:51:09;2.85;;;1.67;;
14770;SDS011;7477;45.222;5.688;2024-03-23T18:54:29;3.10;;;1.33;;
14770;SDS011;7477;45.222;5.688;2024-03-23T18:57:48;2.85;;;1.40;;
14770;SDS011;7477;45.222;5.688;2024-03-23T19:01:07;2.00;;;1.50;;
14770;SDS011;7477;45.222;5.688;2024-03-23T19:04:27;2.47;;;1.63;;
14770;SDS011;7477;45.222;5.688;2024-03-23T19:07:46;3.25;;;1.70;;
14770;SDS011;7477;45.222;5.688;2024-03-23T19:11:05;4.28;;;1.67;;
14770;SDS011;7477;45.222;5.688;2024-03-23T19:14:25;4.55;;;1.63;;
14770;SDS011;7477;45.222;5.688;2024-03-23T19:17:44;5.03;;;1.88;;
14770;SDS011;7477;45.222;5.688;2024-03-23T19:21:03;2.08;;;1.50;;
14770;SDS011;7477;45.222;5.688;2024-03-23T19:24:23;6.43;;;3.35;;
14770;SDS011;7477;45.222;5.688;2024-03-23T19:27:42;3.00;;;1.70;;
14770;SDS011;7477;45.222;5.688;2024-03-23T19:31:02;5.00;;;1.67;;
14770;SDS011;7477;45.222;5.688;2024-03-23T19:34:22;6.38;;;1.92;;
14770;SDS011;7477;45.222;5.688;2024-03-23T19:37:42;2.72;;;1.45;;
14770;SDS011;7477;45.222;5.688;2024-03-23T19:41:01;3.80;;;2.28;;
14770;SDS011;7477;45.222;5.688;2024-03-23T19:44:20;4.45;;;3.00;;
14770;SDS011;7477;45.222;5.688;2024-03-23T19:47:40;6.85;;;2.88;;
14770;SDS011;7477;45.222;5.688;2024-03-23T19:51:00;12.15;;;5.95;;
14770;SDS011;7477;45.222;5.688;2024-03-23T19:54:19;7.15;;;3.40;;
14770;SDS011;7477;45.222;5.688;2024-03-23T19:57:39;3.30;;;2.42;;
14770;SDS011;7477;45.222;5.688;2024-03-23T20:01:03;5.78;;;2.47;;
14770;SDS011;7477;45.222;5.688;2024-03-23T20:04:24;3.63;;;2.10;;
14770;SDS011;7477;45.222;5.688;2024-03-23T20:07:44;2.30;;;1.45;;
14770;SDS011;7477;45.222;5.688;2024-03-23T20:11:03;6.25;;;2.40;;
14770;SDS011;7477;45.222;5.688;2024-03-23T20:14:24;7.97;;;3.95;;
14770;SDS011;7477;45.222;5.688;2024-03-23T20:17:43;3.65;;;2.50;;
14770;SDS011;7477;45.222;5.688;2024-03-23T20:21:03;4.70;;;1.85;;
14770;SDS011;7477;45.222;5.688;2024-03-23T20:24:24;4.45;;;2.30;;
14770;SDS011;7477;45.222;5.688;2024-03-23T20:27:44;2.30;;;1.90;;
14770;SDS011;7477;45.222;5.688;2024-03-23T20:31:03;9.55;;;2.88;;
14770;SDS011;7477;45.222;5.688;2024-03-23T20:34:22;4.13;;;2.08;;
14770;SDS011;7477;45.222;5.688;2024-03-23T20:37:41;4.20;;;1.90;;
14770;SDS011;7477;45.222;5.688;2024-03-23T20:41:01;5.85;;;1.85;;
14770;SDS011;7477;45.222;5.688;2024-03-23T20:44:21;4.68;;;1.80;;
14770;SDS011;7477;45.222;5.688;2024-03-23T20:47:40;3.83;;;1.70;;
14770;SDS011;7477;45.222;5.688;2024-03-23T20:51:00;5.85;;;2.95;;
14770;SDS011;7477;45.222;5.688;2024-03-23T20:54:20;4.43;;;2.10;;
14770;SDS011;7477;45.222;5.688;2024-03-23T20:57:39;4.30;;;2.03;;
14770;SDS011;7477;45.222;5.688;2024-03-23T21:00:59;4.97;;;2.03;;
14770;SDS011;7477;45.222;5.688;2024-03-23T21:04:18;4.57;;;1.67;;
14770;SDS011;7477;45.222;5.688;2024-03-23T21:07:37;3.67;;;1.90;;
14770;SDS011;7477;45.222;5.688;2024-03-23T21:10:57;3.88;;;1.95;;
14770;SDS011;7477;45.222;5.688;2024-03-23T21:14:17;6.13;;;1.80;;
14770;SDS011;7477;45.222;5.688;2024-03-23T21:17:36;3.75;;;1.98;;